sensor_id;sensor_type;location;lat;lon;timestamp;P1;durP1;ratioP1;P2;durP2;ratioP2
49946;SDS011;35839;48.662;13.300;2022-09-12T04:45:07;13.80;;;10.70;;
49946;SDS011;35839;48.662;13.300;2022-09-12T04:47:33;17.15;;;12.30;;
49946;SDS011;35839;48.662;13.300;2022-09-12T04:49:58;18.52;;;12.93;;
49946;SDS011;35839;48.662;13.300;2022-09-12T04:52:23;15.25;;;12.07;;
49946;SDS011;35839;48.662;13.300;2022-09-12T04:54:49;13.90;;;11.43;;
49946;SDS011;35839;48.662;13.300;2022-09-12T04:57:14;17.77;;;12.77;;
49946;SDS011;35839;48.662;13.300;2022-09-12T04:59:40;19.13;;;12.98;;
49946;SDS011;35839;48.662;13.300;2022-09-12T05:02:05;28.08;;;13.95;;
49946;SDS011;35839;48.662;13.300;2022-09-12T05:04:31;18.10;;;14.18;;
49946;SDS011;35839;48.662;13.300;2022-09-12T05:06:56;23.58;;;14.10;;
49946;SDS011;35839;48.662;13.300;2022-09-12T05:09:22;18.02;;;14.20;;
49946;SDS011;35839;48.662;13.300;2022-09-12T05:11:48;23.80;;;14.85;;
49946;SDS011;35839;48.662;13.300;2022-09-12T05:14:13;22.52;;;14.30;;
49946;SDS011;35839;48.662;13.300;2022-09-12T05:16:39;19.50;;;14.05;;
49946;SDS011;35839;48.662;13.300;2022-09-12T05:19:05;21.13;;;14.82;;
49946;SDS011;35839;48.662;13.300;2022-09-12T05:21:30;23.98;;;15.88;;
49946;SDS011;35839;48.662;13.300;2022-09-12T05:23:56;20.23;;;14.10;;
49946;SDS011;35839;48.662;13.300;2022-09-12T05:26:25;19.95;;;14.02;;
49946;SDS011;35839;48.662;13.300;2022-09-12T05:28:51;19.52;;;13.45;;
49946;SDS011;35839;48.662;13.300;2022-09-12T05:31:19;22.13;;;13.98;;
49946;SDS011;35839;48.662;13.300;2022-09-12T05:33:52;18.35;;;13.93;;
49946;SDS011;35839;48.662;13.300;2022-09-12T05:36:19;17.20;;;13.30;;
49946;SDS011;35839;48.662;13.300;2022-09-12T05:38:47;18.73;;;13.20;;
49946;SDS011;35839;48.662;13.300;2022-09-12T05:41:17;18.10;;;13.65;;
49946;SDS011;35839;48.662;13.300;2022-09-12T05:43:44;18.17;;;13.60;;
49946;SDS011;35839;48.662;13.300;2022-09-12T05:46:11;16.60;;;13.00;;
49946;SDS011;35839;48.662;13.300;2022-09-12T05:48:39;18.75;;;12.48;;
49946;SDS011;35839;48.662;13.300;2022-09-12T05:51:07;16.17;;;12.02;;
49946;SDS011;35839;48.662;13.300;2022-09-12T05:53:37;16.30;;;12.85;;
49946;SDS011;35839;48.662;13.300;2022-09-12T05:56:05;16.63;;;13.20;;
49946;SDS011;35839;48.662;13.300;2022-09-12T05:58:31;22.65;;;12.90;;
49946;SDS011;35839;48.662;13.300;2022-09-12T06:01:02;18.45;;;13.85;;
49946;SDS011;35839;48.662;13.300;2022-09-12T06:03:29;19.85;;;12.70;;
49946;SDS011;35839;48.662;13.300;2022-09-12T06:05:55;19.20;;;12.52;;
49946;SDS011;35839;48.662;13.300;2022-09-12T06:08:20;15.55;;;12.25;;
49946;SDS011;35839;48.662;13.300;2022-09-12T06:10:46;17.88;;;12.88;;
49946;SDS011;35839;48.662;13.300;2022-09-12T06:13:11;16.10;;;11.95;;
49946;SDS011;35839;48.662;13.300;2022-09-12T06:15:36;16.38;;;12.85;;
49946;SDS011;35839;48.662;13.300;2022-09-12T06:18:02;15.93;;;12.30;;
49946;SDS011;35839;48.662;13.300;2022-09-12T06:20:27;19.40;;;11.93;;
49946;SDS011;35839;48.662;13.300;2022-09-12T06:22:53;17.52;;;12.10;;
49946;SDS011;35839;48.662;13.300;2022-09-12T06:25:18;14.10;;;11.40;;
49946;SDS011;35839;48.662;13.300;2022-09-12T06:27:44;16.58;;;11.25;;
49946;SDS011;35839;48.662;13.300;2022-09-12T06:30:10;17.30;;;11.65;;
49946;SDS011;35839;48.662;13.300;2022-09-12T06:32:36;15.18;;;10.93;;
49946;SDS011;35839;48.662;13.300;2022-09-12T06:35:01;12.88;;;10.77;;
49946;SDS011;35839;48.662;13.300;2022-09-12T06:37:27;24.00;;;11.27;;
49946;SDS011;35839;48.662;13.300;2022-09-12T06:39:53;17.25;;;10.32;;
49946;SDS011;35839;48.662;13.300;2022-09-12T06:42:18;14.98;;;11.57;;
49946;SDS011;35839;48.662;13.300;2022-09-12T06:44:44;16.02;;;12.00;;
49946;SDS011;35839;48.662;13.300;2022-09-12T06:47:09;15.13;;;12.00;;
49946;SDS011;35839;48.662;13.300;2022-09-12T06:49:34;16.13;;;12.43;;
49946;SDS011;35839;48.662;13.300;2022-09-12T06:52:00;15.82;;;11.63;;
49946;SDS011;35839;48.662;13.300;2022-09-12T06:54:25;16.00;;;11.60;;
49946;SDS011;35839;48.662;13.300;2022-09-12T06:56:51;15.82;;;12.10;;
49946;SDS011;35839;48.662;13.300;2022-09-12T06:59:16;13.82;;;11.52;;
49946;SDS011;35839;48.662;13.300;2022-09-12T07:01:42;16.38;;;11.85;;
49946;SDS011;35839;48.662;13.300;2022-09-12T07:04:07;15.23;;;11.82;;
49946;SDS011;35839;48.662;13.300;2022-09-12T07:06:37;19.05;;;11.70;;
49946;SDS011;35839;48.662;13.300;2022-09-12T07:09:05;13.82;;;11.20;;
49946;SDS011;35839;48.662;13.300;2022-09-12T07:11:33;18.85;;;11.25;;
49946;SDS011;35839;48.662;13.300;2022-09-12T07:14:01;14.95;;;12.10;;
49946;SDS011;35839;48.662;13.300;2022-09-12T07:16:28;16.08;;;11.63;;
49946;SDS011;35839;48.662;13.300;2022-09-12T07:18:55;17.75;;;13.18;;
49946;SDS011;35839;48.662;13.300;2022-09-12T07:21:24;17.13;;;12.20;;
49946;SDS011;35839;48.662;13.300;2022-09-12T07:23:49;15.50;;;11.93;;
49946;SDS011;35839;48.662;13.300;2022-09-12T07:26:16;14.27;;;11.30;;
49946;SDS011;35839;48.662;13.300;2022-09-12T07:28:42;14.35;;;10.75;;
49946;SDS011;35839;48.662;13.300;2022-09-12T07:31:12;13.68;;;10.75;;
49946;SDS011;35839;48.662;13.300;2022-09-12T07:33:39;14.50;;;10.80;;
49946;SDS011;35839;48.662;13.300;2022-09-12T07:36:06;12.82;;;10.55;;
49946;SDS011;35839;48.662;13.300;2022-09-12T07:38:35;15.82;;;12.15;;
49946;SDS011;35839;48.662;13.300;2022-09-12T07:41:08;12.43;;;11.13;;
49946;SDS011;35839;48.662;13.300;2022-09-12T07:43:44;12.75;;;11.15;;
49946;SDS011;35839;48.662;13.300;2022-09-12T07:46:11;14.80;;;11.80;;
49946;SDS011;35839;48.662;13.300;2022-09-12T07:48:37;15.15;;;12.00;;
49946;SDS011;35839;48.662;13.300;2022-09-12T07:51:04;14.98;;;11.65;;
49946;SDS011;35839;48.662;13.300;2022-09-12T07:53:35;14.20;;;11.25;;
49946;SDS011;35839;48.662;13.300;2022-09-12T07:56:05;12.57;;;10.40;;
49946;SDS011;35839;48.662;13.300;2022-09-12T07:58:33;13.32;;;10.98;;
49946;SDS011;35839;48.662;13.300;2022-09-12T08:01:04;14.13;;;11.13;;
49946;SDS011;35839;48.662;13.300;2022-09-12T08:03:32;14.25;;;12.00;;
49946;SDS011;35839;48.662;13.300;2022-09-12T08:06:32;15.63;;;12.18;;
49946;SDS011;35839;48.662;13.300;2022-09-12T08:08:52;15.43;;;11.10;;
49946;SDS011;35839;48.662;13.300;2022-09-12T08:11:19;13.40;;;11.40;;
49946;SDS011;35839;48.662;13.300;2022-09-12T08:13:46;16.58;;;11.55;;
49946;SDS011;35839;48.662;13.300;2022-09-12T08:16:16;16.27;;;12.30;;
49946;SDS011;35839;48.662;13.300;2022-09-12T08:18:45;15.13;;;12.23;;
49946;SDS011;35839;48.662;13.300;2022-09-12T08:21:17;15.43;;;12.65;;
49946;SDS011;35839;48.662;13.300;2022-09-12T08:23:45;18.48;;;12.55;;
49946;SDS011;35839;48.662;13.300;2022-09-12T08:26:12;17.08;;;11.25;;
49946;SDS011;35839;48.662;13.300;2022-09-12T08:28:37;18.08;;;14.32;;
49946;SDS011;35839;48.662;13.300;2022-09-12T08:31:06;16.65;;;13.70;;
49946;SDS011;35839;48.662;13.300;2022-09-12T08:33:33;18.52;;;13.45;;
49946;SDS011;35839;48.662;13.300;2022-09-12T08:36:02;16.08;;;13.75;;
49946;SDS011;35839;48.662;13.300;2022-09-12T08:38:28;18.45;;;14.57;;
49946;SDS011;35839;48.662;13.300;2022-09-12T08:40:56;19.00;;;14.82;;
49946;SDS011;35839;48.662;13.300;2022-09-12T08:46:27;17.70;;;14.13;;
49946;SDS011;35839;48.662;13.300;2022-09-12T08:48:59;17.20;;;13.25;;
49946;SDS011;35839;48.662;13.300;2022-09-12T08:51:26;14.43;;;12.93;;
49946;SDS011;35839;48.662;13.300;2022-09-12T08:53:55;17.65;;;13.65;;
49946;SDS011;35839;48.662;13.300;2022-09-12T08:56:22;13.70;;;11.93;;
49946;SDS011;35839;48.662;13.300;2022-09-12T08:58:50;15.40;;;12.77;;
49946;SDS011;35839;48.662;13.300;2022-09-12T09:01:20;15.43;;;10.93;;
49946;SDS011;35839;48.662;13.300;2022-09-12T09:12:12;15.82;;;13.05;;
49946;SDS011;35839;48.662;13.300;2022-09-12T09:17:36;13.05;;;11.13;;
49946;SDS011;35839;48.662;13.300;2022-09-12T09:25:57;13.85;;;11.73;;
49946;SDS011;35839;48.662;13.300;2022-09-12T09:28:35;13.35;;;11.48;;
49946;SDS011;35839;48.662;13.300;2022-09-12T09:31:13;13.25;;;11.85;;
49946;SDS011;35839;48.662;13.300;2022-09-12T09:33:40;14.55;;;10.70;;
49946;SDS011;35839;48.662;13.300;2022-09-12T09:38:47;13.63;;;12.02;;
49946;SDS011;35839;48.662;13.300;2022-09-12T09:43:42;15.13;;;12.02;;
49946;SDS011;35839;48.662;13.300;2022-09-12T09:46:08;15.82;;;11.70;;
49946;SDS011;35839;48.662;13.300;2022-09-12T09:48:34;14.23;;;12.52;;
49946;SDS011;35839;48.662;13.300;2022-09-12T09:51:04;14.80;;;12.70;;
49946;SDS011;35839;48.662;13.300;2022-09-12T10:04:51;14.10;;;11.27;;
49946;SDS011;35839;48.662;13.300;2022-09-12T10:07:19;13.90;;;11.45;;
49946;SDS011;35839;48.662;13.300;2022-09-12T10:12:43;12.32;;;11.02;;
49946;SDS011;35839;48.662;13.300;2022-09-12T10:17:50;12.30;;;10.95;;
49946;SDS011;35839;48.662;13.300;2022-09-12T10:20:59;12.20;;;10.90;;
49946;SDS011;35839;48.662;13.300;2022-09-12T10:26:02;14.27;;;11.55;;
49946;SDS011;35839;48.662;13.300;2022-09-12T10:28:34;11.63;;;10.43;;
49946;SDS011;35839;48.662;13.300;2022-09-12T10:31:03;13.02;;;11.60;;
49946;SDS011;35839;48.662;13.300;2022-09-12T10:33:30;10.07;;;9.05;;
49946;SDS011;35839;48.662;13.300;2022-09-12T10:36:05;14.10;;;10.77;;
49946;SDS011;35839;48.662;13.300;2022-09-12T10:38:31;9.98;;;8.90;;
49946;SDS011;35839;48.662;13.300;2022-09-12T10:41:03;10.48;;;9.48;;
49946;SDS011;35839;48.662;13.300;2022-09-12T10:43:37;12.00;;;10.80;;
49946;SDS011;35839;48.662;13.300;2022-09-12T10:48:42;10.35;;;9.18;;
49946;SDS011;35839;48.662;13.300;2022-09-12T10:51:25;12.35;;;10.90;;
49946;SDS011;35839;48.662;13.300;2022-09-12T10:53:53;10.55;;;9.32;;
49946;SDS011;35839;48.662;13.300;2022-09-12T11:01:49;12.10;;;10.50;;
49946;SDS011;35839;48.662;13.300;2022-09-12T11:04:42;11.05;;;9.13;;
49946;SDS011;35839;48.662;13.300;2022-09-12T11:10:20;10.63;;;9.55;;
49946;SDS011;35839;48.662;13.300;2022-09-12T11:13:13;10.10;;;8.63;;
49946;SDS011;35839;48.662;13.300;2022-09-12T11:24:20;8.10;;;7.20;;
49946;SDS011;35839;48.662;13.300;2022-09-12T11:42:55;5.18;;;4.68;;
49946;SDS011;35839;48.662;13.300;2022-09-12T11:45:31;6.80;;;5.90;;
49946;SDS011;35839;48.662;13.300;2022-09-12T11:48:05;5.50;;;5.00;;
49946;SDS011;35839;48.662;13.300;2022-09-12T11:50:35;4.90;;;4.05;;
49946;SDS011;35839;48.662;13.300;2022-09-12T11:53:04;3.80;;;3.40;;
49946;SDS011;35839;48.662;13.300;2022-09-12T11:55:43;3.58;;;2.90;;
49946;SDS011;35839;48.662;13.300;2022-09-12T11:58:33;4.90;;;4.13;;
49946;SDS011;35839;48.662;13.300;2022-09-12T12:03:42;6.07;;;4.47;;
49946;SDS011;35839;48.662;13.300;2022-09-12T12:06:11;7.60;;;5.88;;
49946;SDS011;35839;48.662;13.300;2022-09-12T12:08:43;7.53;;;6.80;;
49946;SDS011;35839;48.662;13.300;2022-09-12T12:11:11;8.88;;;6.72;;
49946;SDS011;35839;48.662;13.300;2022-09-12T12:13:40;7.20;;;6.28;;
49946;SDS011;35839;48.662;13.300;2022-09-12T12:16:13;9.20;;;8.25;;
49946;SDS011;35839;48.662;13.300;2022-09-12T12:18:45;9.18;;;7.20;;
49946;SDS011;35839;48.662;13.300;2022-09-12T12:36:54;6.60;;;5.10;;
49946;SDS011;35839;48.662;13.300;2022-09-12T12:42:01;8.75;;;6.20;;
49946;SDS011;35839;48.662;13.300;2022-09-12T13:01:08;5.43;;;4.40;;
49946;SDS011;35839;48.662;13.300;2022-09-12T13:03:41;5.20;;;4.57;;
49946;SDS011;35839;48.662;13.300;2022-09-12T13:06:23;5.10;;;4.25;;
49946;SDS011;35839;48.662;13.300;2022-09-12T13:08:59;5.43;;;3.53;;
49946;SDS011;35839;48.662;13.300;2022-09-12T13:11:38;5.22;;;4.72;;
49946;SDS011;35839;48.662;13.300;2022-09-12T13:14:06;4.25;;;3.85;;
49946;SDS011;35839;48.662;13.300;2022-09-12T13:16:52;4.65;;;3.92;;
49946;SDS011;35839;48.662;13.300;2022-09-12T13:19:26;4.20;;;3.80;;
49946;SDS011;35839;48.662;13.300;2022-09-12T13:22:04;4.22;;;3.83;;
49946;SDS011;35839;48.662;13.300;2022-09-12T13:24:31;4.70;;;3.40;;
49946;SDS011;35839;48.662;13.300;2022-09-12T13:26:57;4.00;;;3.60;;
49946;SDS011;35839;48.662;13.300;2022-09-12T13:29:23;4.35;;;3.95;;
49946;SDS011;35839;48.662;13.300;2022-09-12T13:31:51;3.80;;;3.25;;
49946;SDS011;35839;48.662;13.300;2022-09-12T13:37:10;4.65;;;2.90;;
49946;SDS011;35839;48.662;13.300;2022-09-12T13:44:57;2.35;;;2.15;;
49946;SDS011;35839;48.662;13.300;2022-09-12T13:47:29;3.20;;;2.88;;
49946;SDS011;35839;48.662;13.300;2022-09-12T13:49:59;3.50;;;2.55;;
49946;SDS011;35839;48.662;13.300;2022-09-12T13:52:30;2.95;;;2.60;;
49946;SDS011;35839;48.662;13.300;2022-09-12T13:54:57;2.65;;;2.45;;
49946;SDS011;35839;48.662;13.300;2022-09-12T13:57:34;2.80;;;2.57;;
49946;SDS011;35839;48.662;13.300;2022-09-12T14:00:04;3.58;;;2.70;;
49946;SDS011;35839;48.662;13.300;2022-09-12T14:02:33;3.25;;;2.78;;
49946;SDS011;35839;48.662;13.300;2022-09-12T14:05:00;3.03;;;2.72;;
49946;SDS011;35839;48.662;13.300;2022-09-12T14:07:38;3.97;;;2.85;;
49946;SDS011;35839;48.662;13.300;2022-09-12T14:10:17;3.08;;;2.67;;
49946;SDS011;35839;48.662;13.300;2022-09-12T14:12:47;3.40;;;2.83;;
49946;SDS011;35839;48.662;13.300;2022-09-12T14:15:18;4.18;;;3.00;;
49946;SDS011;35839;48.662;13.300;2022-09-12T14:17:52;2.45;;;2.25;;
49946;SDS011;35839;48.662;13.300;2022-09-12T14:22:47;3.10;;;2.70;;
49946;SDS011;35839;48.662;13.300;2022-09-12T14:25:23;3.47;;;3.17;;
49946;SDS011;35839;48.662;13.300;2022-09-12T14:27:50;3.25;;;2.70;;
49946;SDS011;35839;48.662;13.300;2022-09-12T14:33:03;4.55;;;2.92;;
49946;SDS011;35839;48.662;13.300;2022-09-12T14:35:29;3.97;;;3.20;;
49946;SDS011;35839;48.662;13.300;2022-09-12T14:37:56;4.68;;;3.20;;
49946;SDS011;35839;48.662;13.300;2022-09-12T14:40:31;4.50;;;2.95;;
49946;SDS011;35839;48.662;13.300;2022-09-12T14:43:04;3.30;;;2.90;;
49946;SDS011;35839;48.662;13.300;2022-09-12T14:45:41;3.80;;;3.22;;
49946;SDS011;35839;48.662;13.300;2022-09-12T14:48:12;5.18;;;2.88;;
49946;SDS011;35839;48.662;13.300;2022-09-12T14:50:42;3.13;;;2.78;;
49946;SDS011;35839;48.662;13.300;2022-09-12T14:56:36;4.40;;;3.50;;
49946;SDS011;35839;48.662;13.300;2022-09-12T14:58:35;3.30;;;3.00;;
49946;SDS011;35839;48.662;13.300;2022-09-12T15:01:22;5.05;;;2.97;;
49946;SDS011;35839;48.662;13.300;2022-09-12T15:03:50;3.30;;;3.00;;
49946;SDS011;35839;48.662;13.300;2022-09-12T15:08:52;4.15;;;2.67;;
49946;SDS011;35839;48.662;13.300;2022-09-12T15:11:19;3.17;;;2.88;;
49946;SDS011;35839;48.662;13.300;2022-09-12T15:13:45;3.45;;;3.00;;
49946;SDS011;35839;48.662;13.300;2022-09-12T15:16:10;3.30;;;3.00;;
49946;SDS011;35839;48.662;13.300;2022-09-12T15:18:36;3.22;;;2.55;;
49946;SDS011;35839;48.662;13.300;2022-09-12T15:21:03;3.35;;;2.95;;
49946;SDS011;35839;48.662;13.300;2022-09-12T15:23:33;4.05;;;3.20;;
49946;SDS011;35839;48.662;13.300;2022-09-12T15:25:59;5.45;;;4.90;;
49946;SDS011;35839;48.662;13.300;2022-09-12T15:28:26;6.07;;;4.25;;
49946;SDS011;35839;48.662;13.300;2022-09-12T15:30:52;3.88;;;3.13;;
49946;SDS011;35839;48.662;13.300;2022-09-12T15:33:20;3.75;;;2.80;;
49946;SDS011;35839;48.662;13.300;2022-09-12T15:35:48;3.20;;;2.90;;
49946;SDS011;35839;48.662;13.300;2022-09-12T15:38:14;3.53;;;3.22;;
49946;SDS011;35839;48.662;13.300;2022-09-12T15:40:39;4.63;;;2.90;;
49946;SDS011;35839;48.662;13.300;2022-09-12T15:43:05;3.75;;;3.22;;
49946;SDS011;35839;48.662;13.300;2022-09-12T15:45:31;3.33;;;3.03;;
49946;SDS011;35839;48.662;13.300;2022-09-12T15:47:58;3.90;;;3.45;;
49946;SDS011;35839;48.662;13.300;2022-09-12T15:50:25;4.75;;;3.28;;
49946;SDS011;35839;48.662;13.300;2022-09-12T15:52:52;7.63;;;5.47;;
49946;SDS011;35839;48.662;13.300;2022-09-12T15:57:45;5.68;;;4.18;;
49946;SDS011;35839;48.662;13.300;2022-09-12T16:00:11;3.53;;;3.03;;
49946;SDS011;35839;48.662;13.300;2022-09-12T16:02:38;3.17;;;2.80;;
49946;SDS011;35839;48.662;13.300;2022-09-12T16:05:04;3.22;;;2.92;;
49946;SDS011;35839;48.662;13.300;2022-09-12T16:07:30;3.40;;;3.10;;
49946;SDS011;35839;48.662;13.300;2022-09-12T16:09:56;5.50;;;4.35;;
49946;SDS011;35839;48.662;13.300;2022-09-12T16:12:21;4.05;;;3.50;;
49946;SDS011;35839;48.662;13.300;2022-09-12T16:14:47;3.40;;;3.10;;
49946;SDS011;35839;48.662;13.300;2022-09-12T16:17:12;3.97;;;3.10;;
49946;SDS011;35839;48.662;13.300;2022-09-12T16:19:37;4.50;;;3.90;;
49946;SDS011;35839;48.662;13.300;2022-09-12T16:22:03;6.78;;;5.72;;
49946;SDS011;35839;48.662;13.300;2022-09-12T16:24:28;6.28;;;5.55;;
49946;SDS011;35839;48.662;13.300;2022-09-12T16:26:54;6.00;;;3.67;;
49946;SDS011;35839;48.662;13.300;2022-09-12T16:29:19;4.80;;;4.05;;
49946;SDS011;35839;48.662;13.300;2022-09-12T16:31:44;5.53;;;3.05;;
49946;SDS011;35839;48.662;13.300;2022-09-12T16:34:10;3.28;;;2.85;;
49946;SDS011;35839;48.662;13.300;2022-09-12T16:36:35;3.40;;;3.10;;
49946;SDS011;35839;48.662;13.300;2022-09-12T16:39:01;6.03;;;2.88;;
49946;SDS011;35839;48.662;13.300;2022-09-12T16:41:27;4.05;;;3.17;;
49946;SDS011;35839;48.662;13.300;2022-09-12T16:43:52;4.82;;;2.72;;
49946;SDS011;35839;48.662;13.300;2022-09-12T16:46:19;4.68;;;2.90;;
49946;SDS011;35839;48.662;13.300;2022-09-12T16:48:48;4.72;;;2.60;;
49946;SDS011;35839;48.662;13.300;2022-09-12T16:51:27;3.88;;;2.85;;
49946;SDS011;35839;48.662;13.300;2022-09-12T16:54:01;3.92;;;2.75;;
49946;SDS011;35839;48.662;13.300;2022-09-12T16:56:27;5.43;;;3.17;;
49946;SDS011;35839;48.662;13.300;2022-09-12T16:58:54;4.57;;;3.50;;
49946;SDS011;35839;48.662;13.300;2022-09-12T17:01:25;8.25;;;3.90;;
49946;SDS011;35839;48.662;13.300;2022-09-12T17:03:55;4.55;;;3.20;;
49946;SDS011;35839;48.662;13.300;2022-09-12T17:06:22;3.78;;;3.00;;
49946;SDS011;35839;48.662;13.300;2022-09-12T17:08:50;4.00;;;3.08;;
49946;SDS011;35839;48.662;13.300;2022-09-12T17:11:18;5.07;;;3.03;;
49946;SDS011;35839;48.662;13.300;2022-09-12T17:13:45;4.25;;;3.42;;
49946;SDS011;35839;48.662;13.300;2022-09-12T17:16:14;5.30;;;3.50;;
49946;SDS011;35839;48.662;13.300;2022-09-12T17:18:40;4.70;;;3.00;;
49946;SDS011;35839;48.662;13.300;2022-09-12T17:21:06;4.97;;;3.53;;
49946;SDS011;35839;48.662;13.300;2022-09-12T17:23:32;6.10;;;3.00;;
49946;SDS011;35839;48.662;13.300;2022-09-12T17:25:58;3.95;;;3.25;;
49946;SDS011;35839;48.662;13.300;2022-09-12T17:28:24;5.97;;;3.78;;
49946;SDS011;35839;48.662;13.300;2022-09-12T17:30:56;4.75;;;3.90;;
49946;SDS011;35839;48.662;13.300;2022-09-12T17:33:23;4.32;;;3.05;;
49946;SDS011;35839;48.662;13.300;2022-09-12T17:35:49;5.15;;;2.83;;
49946;SDS011;35839;48.662;13.300;2022-09-12T17:38:15;9.88;;;3.88;;
49946;SDS011;35839;48.662;13.300;2022-09-12T17:40:41;7.57;;;3.60;;
49946;SDS011;35839;48.662;13.300;2022-09-12T17:43:08;6.75;;;3.80;;
49946;SDS011;35839;48.662;13.300;2022-09-12T17:45:33;5.32;;;4.10;;
49946;SDS011;35839;48.662;13.300;2022-09-12T17:47:58;8.73;;;4.85;;
49946;SDS011;35839;48.662;13.300;2022-09-12T17:50:25;5.72;;;4.45;;
49946;SDS011;35839;48.662;13.300;2022-09-12T17:52:51;4.28;;;3.88;;
49946;SDS011;35839;48.662;13.300;2022-09-12T17:55:16;7.25;;;3.30;;
49946;SDS011;35839;48.662;13.300;2022-09-12T17:57:42;4.85;;;3.53;;
49946;SDS011;35839;48.662;13.300;2022-09-12T18:00:09;6.93;;;3.85;;
49946;SDS011;35839;48.662;13.300;2022-09-12T18:02:35;5.05;;;3.92;;
49946;SDS011;35839;48.662;13.300;2022-09-12T18:05:01;4.30;;;3.28;;
49946;SDS011;35839;48.662;13.300;2022-09-12T18:07:29;5.43;;;4.00;;
49946;SDS011;35839;48.662;13.300;2022-09-12T18:09:54;4.55;;;3.78;;
49946;SDS011;35839;48.662;13.300;2022-09-12T18:12:20;4.32;;;3.80;;
49946;SDS011;35839;48.662;13.300;2022-09-12T18:14:45;4.70;;;3.85;;
49946;SDS011;35839;48.662;13.300;2022-09-12T18:17:11;6.68;;;4.55;;
49946;SDS011;35839;48.662;13.300;2022-09-12T18:19:36;4.47;;;3.67;;
49946;SDS011;35839;48.662;13.300;2022-09-12T18:22:02;4.65;;;4.18;;
49946;SDS011;35839;48.662;13.300;2022-09-12T18:24:30;5.30;;;4.30;;
49946;SDS011;35839;48.662;13.300;2022-09-12T18:26:56;5.97;;;4.38;;
49946;SDS011;35839;48.662;13.300;2022-09-12T18:29:21;5.88;;;4.75;;
49946;SDS011;35839;48.662;13.300;2022-09-12T18:31:47;4.32;;;3.92;;
49946;SDS011;35839;48.662;13.300;2022-09-12T18:34:13;9.93;;;4.53;;
49946;SDS011;35839;48.662;13.300;2022-09-12T18:36:39;5.72;;;4.47;;
49946;SDS011;35839;48.662;13.300;2022-09-12T18:39:05;6.13;;;4.00;;
49946;SDS011;35839;48.662;13.300;2022-09-12T18:41:31;7.40;;;4.63;;
49946;SDS011;35839;48.662;13.300;2022-09-12T18:43:57;4.85;;;4.30;;
49946;SDS011;35839;48.662;13.300;2022-09-12T18:46:24;4.43;;;3.90;;
49946;SDS011;35839;48.662;13.300;2022-09-12T18:48:51;6.38;;;5.10;;
49946;SDS011;35839;48.662;13.300;2022-09-12T18:51:23;9.63;;;4.68;;
49946;SDS011;35839;48.662;13.300;2022-09-12T18:53:57;5.10;;;4.20;;
49946;SDS011;35839;48.662;13.300;2022-09-12T18:56:27;10.65;;;5.03;;
49946;SDS011;35839;48.662;13.300;2022-09-12T18:58:58;7.03;;;5.30;;
49946;SDS011;35839;48.662;13.300;2022-09-12T19:01:25;8.95;;;5.57;;
49946;SDS011;35839;48.662;13.300;2022-09-12T19:03:52;6.10;;;5.00;;
49946;SDS011;35839;48.662;13.300;2022-09-12T19:06:20;6.18;;;5.35;;
49946;SDS011;35839;48.662;13.300;2022-09-12T19:08:47;7.13;;;5.50;;
49946;SDS011;35839;48.662;13.300;2022-09-12T19:11:14;6.97;;;5.68;;
49946;SDS011;35839;48.662;13.300;2022-09-12T19:13:41;7.78;;;5.60;;
49946;SDS011;35839;48.662;13.300;2022-09-12T19:16:13;7.47;;;5.93;;
49946;SDS011;35839;48.662;13.300;2022-09-12T19:18:41;6.03;;;5.38;;
49946;SDS011;35839;48.662;13.300;2022-09-12T19:21:07;6.78;;;5.07;;
49946;SDS011;35839;48.662;13.300;2022-09-12T19:23:37;7.28;;;5.57;;
49946;SDS011;35839;48.662;13.300;2022-09-12T19:26:04;8.35;;;4.97;;
49946;SDS011;35839;48.662;13.300;2022-09-12T19:28:30;5.00;;;4.50;;
49946;SDS011;35839;48.662;13.300;2022-09-12T19:30:56;7.30;;;5.22;;
49946;SDS011;35839;48.662;13.300;2022-09-12T19:33:22;5.68;;;4.97;;
49946;SDS011;35839;48.662;13.300;2022-09-12T19:35:48;5.97;;;5.32;;
49946;SDS011;35839;48.662;13.300;2022-09-12T19:38:15;5.95;;;5.32;;
49946;SDS011;35839;48.662;13.300;2022-09-12T19:40:41;6.22;;;5.18;;
49946;SDS011;35839;48.662;13.300;2022-09-12T19:43:07;8.48;;;5.38;;
49946;SDS011;35839;48.662;13.300;2022-09-12T19:45:33;6.72;;;4.85;;
49946;SDS011;35839;48.662;13.300;2022-09-12T19:47:59;5.63;;;4.82;;
49946;SDS011;35839;48.662;13.300;2022-09-12T19:50:25;6.60;;;5.85;;
49946;SDS011;35839;48.662;13.300;2022-09-12T19:52:51;6.45;;;4.25;;
49946;SDS011;35839;48.662;13.300;2022-09-12T19:55:16;7.70;;;4.60;;
49946;SDS011;35839;48.662;13.300;2022-09-12T19:57:42;5.55;;;4.55;;
49946;SDS011;35839;48.662;13.300;2022-09-12T20:00:08;5.95;;;4.90;;
49946;SDS011;35839;48.662;13.300;2022-09-12T20:02:34;5.40;;;4.90;;
49946;SDS011;35839;48.662;13.300;2022-09-12T20:04:59;10.85;;;5.07;;
49946;SDS011;35839;48.662;13.300;2022-09-12T20:07:25;5.75;;;5.10;;
49946;SDS011;35839;48.662;13.300;2022-09-12T20:09:51;6.18;;;5.10;;
49946;SDS011;35839;48.662;13.300;2022-09-12T20:12:16;7.15;;;5.75;;
49946;SDS011;35839;48.662;13.300;2022-09-12T20:14:42;7.25;;;6.07;;
49946;SDS011;35839;48.662;13.300;2022-09-12T20:17:07;7.82;;;6.28;;
49946;SDS011;35839;48.662;13.300;2022-09-12T20:19:33;7.72;;;5.38;;
49946;SDS011;35839;48.662;13.300;2022-09-12T20:21:58;10.65;;;6.93;;
49946;SDS011;35839;48.662;13.300;2022-09-12T20:24:24;7.10;;;5.05;;
49946;SDS011;35839;48.662;13.300;2022-09-12T20:26:49;10.75;;;6.40;;
49946;SDS011;35839;48.662;13.300;2022-09-12T20:29:15;6.65;;;5.95;;
49946;SDS011;35839;48.662;13.300;2022-09-12T20:31:41;8.45;;;6.63;;
49946;SDS011;35839;48.662;13.300;2022-09-12T20:34:09;7.78;;;6.55;;
49946;SDS011;35839;48.662;13.300;2022-09-12T20:36:38;7.50;;;6.70;;
49946;SDS011;35839;48.662;13.300;2022-09-12T20:39:04;7.32;;;6.07;;
49946;SDS011;35839;48.662;13.300;2022-09-12T20:41:30;6.75;;;5.95;;
49946;SDS011;35839;48.662;13.300;2022-09-12T20:43:57;6.13;;;5.28;;
49946;SDS011;35839;48.662;13.300;2022-09-12T20:46:23;7.80;;;6.90;;
49946;SDS011;35839;48.662;13.300;2022-09-12T20:48:50;6.93;;;6.18;;
49946;SDS011;35839;48.662;13.300;2022-09-12T20:51:16;7.82;;;5.97;;
49946;SDS011;35839;48.662;13.300;2022-09-12T20:53:42;6.53;;;5.82;;
49946;SDS011;35839;48.662;13.300;2022-09-12T20:56:08;6.90;;;6.20;;
49946;SDS011;35839;48.662;13.300;2022-09-12T20:58:33;6.10;;;5.47;;
49946;SDS011;35839;48.662;13.300;2022-09-12T21:01:00;6.88;;;6.18;;
49946;SDS011;35839;48.662;13.300;2022-09-12T21:03:31;8.45;;;6.30;;
49946;SDS011;35839;48.662;13.300;2022-09-12T21:06:00;9.63;;;6.80;;
49946;SDS011;35839;48.662;13.300;2022-09-12T21:08:26;9.07;;;6.95;;
49946;SDS011;35839;48.662;13.300;2022-09-12T21:10:51;10.32;;;7.15;;
49946;SDS011;35839;48.662;13.300;2022-09-12T21:13:16;11.27;;;7.47;;
49946;SDS011;35839;48.662;13.300;2022-09-12T21:15:42;9.20;;;7.32;;
49946;SDS011;35839;48.662;13.300;2022-09-12T21:18:07;8.32;;;6.95;;
49946;SDS011;35839;48.662;13.300;2022-09-12T21:20:32;9.13;;;7.72;;
49946;SDS011;35839;48.662;13.300;2022-09-12T21:22:58;8.38;;;7.00;;
49946;SDS011;35839;48.662;13.300;2022-09-12T21:25:24;9.10;;;7.53;;
49946;SDS011;35839;48.662;13.300;2022-09-12T21:27:49;9.82;;;7.38;;
49946;SDS011;35839;48.662;13.300;2022-09-12T21:30:15;9.70;;;7.28;;
49946;SDS011;35839;48.662;13.300;2022-09-12T21:32:40;8.48;;;6.32;;